createdAt,value
2017-09-23T00:01:57.656Z,14.23
2017-09-23T00:04:25.648Z,14.30
2017-09-23T00:06:53.854Z,14.11
2017-09-23T00:09:21.868Z,14.03
2017-09-23T00:11:49.621Z,13.98
2017-09-23T00:14:17.459Z,14.11
2017-09-23T00:16:45.283Z,14.12
2017-09-23T00:19:13.187Z,14.06
2017-09-23T00:21:41.870Z,14.13
2017-09-23T00:24:10.682Z,14.11
2017-09-23T00:26:38.688Z,14.12
2017-09-23T00:29:06.896Z,14.08
2017-09-23T00:31:34.462Z,14.06
2017-09-23T00:34:02.223Z,14.01
2017-09-23T00:36:29.827Z,13.96
2017-09-23T00:38:57.493Z,14.04
2017-09-23T00:41:25.056Z,14.05
2017-09-23T00:43:52.835Z,14.15
2017-09-23T00:46:20.802Z,14.05
2017-09-23T00:48:48.814Z,14.14
2017-09-23T00:51:16.639Z,14.21
2017-09-23T00:53:44.291Z,14.15
2017-09-23T00:56:11.829Z,13.97
2017-09-23T00:58:39.591Z,14.06
2017-09-23T01:01:07.186Z,14.02
2017-09-23T01:03:34.732Z,14.07
2017-09-23T01:06:02.275Z,14.09
2017-09-23T01:08:29.871Z,14.07
2017-09-23T01:10:58.962Z,14.12
2017-09-23T01:13:26.546Z,14.17
2017-09-23T01:15:54.168Z,14.18
2017-09-23T01:18:21.713Z,14.25
2017-09-23T01:20:49.257Z,14.31
2017-09-23T01:23:16.858Z,14.37
2017-09-23T01:25:44.675Z,14.41
2017-09-23T01:28:12.270Z,14.38
2017-09-23T01:30:39.865Z,14.40
2017-09-23T01:33:07.382Z,14.23
2017-09-23T01:35:34.890Z,14.38
2017-09-23T01:38:03.928Z,14.29
2017-09-23T01:40:32.867Z,14.16
2017-09-23T01:43:01.420Z,14.24
2017-09-23T01:45:29.042Z,14.22
2017-09-23T01:47:56.795Z,14.03
2017-09-23T01:50:24.356Z,14.28
2017-09-23T01:52:51.974Z,14.23
2017-09-23T01:55:19.822Z,14.19
2017-09-23T01:57:47.361Z,14.29
2017-09-23T02:00:15.888Z,14.25
2017-09-23T02:02:43.406Z,14.34
2017-09-23T02:05:12.013Z,14.30
2017-09-23T02:07:39.593Z,14.37
2017-09-23T02:10:07.128Z,14.42
2017-09-23T02:12:34.868Z,14.45
2017-09-23T02:15:02.436Z,14.34
2017-09-23T02:17:30.902Z,14.37
2017-09-23T02:19:58.537Z,14.45
2017-09-23T02:22:26.138Z,14.35
2017-09-23T02:24:53.881Z,14.43
2017-09-23T02:27:21.398Z,14.48
2017-09-23T02:29:49.134Z,14.52
2017-09-23T02:32:16.769Z,14.49
2017-09-23T02:34:44.528Z,14.53
2017-09-23T02:37:12.163Z,14.45
2017-09-23T02:39:39.758Z,14.49
2017-09-23T02:42:07.409Z,14.68
2017-09-23T02:44:35.300Z,14.79
2017-09-23T02:47:03.258Z,14.61
2017-09-23T02:49:31.083Z,14.66
2017-09-23T02:51:59.101Z,14.75
2017-09-23T02:54:26.981Z,14.73
2017-09-23T02:56:54.785Z,14.69
2017-09-23T02:59:22.551Z,14.51
2017-09-23T03:01:50.483Z,14.51
2017-09-23T03:04:18.146Z,14.44
2017-09-23T03:06:45.881Z,14.36
2017-09-23T03:09:13.946Z,14.38
2017-09-23T03:11:41.786Z,14.36
2017-09-23T03:14:09.529Z,14.53
2017-09-23T03:16:37.288Z,14.38
2017-09-23T03:19:05.921Z,14.42
2017-09-23T03:21:33.642Z,14.59
2017-09-23T03:24:01.354Z,14.58
2017-09-23T03:26:29.258Z,14.60
2017-09-23T03:28:56.791Z,14.57
2017-09-23T03:31:24.386Z,14.55
2017-09-23T03:33:51.903Z,14.57
2017-09-23T03:36:19.470Z,14.62
2017-09-23T03:38:47.064Z,14.55
2017-09-23T03:41:14.582Z,14.54
2017-09-23T03:43:42.098Z,14.66
2017-09-23T03:46:09.658Z,14.67
2017-09-23T03:48:37.187Z,14.60
2017-09-23T03:51:04.792Z,14.68
2017-09-23T03:53:32.403Z,14.49
2017-09-23T03:56:00.912Z,14.54
2017-09-23T03:58:28.747Z,14.56
2017-09-23T04:00:56.393Z,14.60
2017-09-23T04:03:23.921Z,14.51
2017-09-23T04:05:51.455Z,14.49
2017-09-23T04:08:19.025Z,14.52
2017-09-23T04:10:46.834Z,14.44
2017-09-23T04:13:14.624Z,14.48
2017-09-23T04:15:42.382Z,14.53
2017-09-23T04:18:10.203Z,14.64
2017-09-23T04:20:37.743Z,14.68
2017-09-23T04:23:05.327Z,14.67
2017-09-23T04:25:32.926Z,14.67
2017-09-23T04:28:01.154Z,14.79
2017-09-23T04:30:28.747Z,14.75
2017-09-23T04:32:56.399Z,14.78
2017-09-23T04:35:24.214Z,14.66
2017-09-23T04:37:51.823Z,14.59
2017-09-23T04:40:19.599Z,14.72
2017-09-23T04:42:47.459Z,14.81
2017-09-23T04:45:15.055Z,14.87
2017-09-23T04:47:42.574Z,14.74
2017-09-23T04:50:10.162Z,14.84
2017-09-23T04:52:37.737Z,14.81
2017-09-23T04:55:06.084Z,14.79
2017-09-23T04:57:33.720Z,14.77
2017-09-23T05:00:01.302Z,14.79
2017-09-23T05:02:29.833Z,14.77
2017-09-23T05:04:57.371Z,14.82
2017-09-23T05:07:24.981Z,14.72
2017-09-23T05:09:52.559Z,14.72
2017-09-23T05:12:20.078Z,14.79
2017-09-23T05:14:48.183Z,14.82
2017-09-23T05:17:15.778Z,14.75
2017-09-23T05:19:43.523Z,14.88
2017-09-23T05:22:11.054Z,14.89
2017-09-23T05:24:38.857Z,14.85
2017-09-23T05:27:06.522Z,14.93
2017-09-23T05:29:34.332Z,14.89
2017-09-23T05:32:01.959Z,15.00
2017-09-23T05:34:29.601Z,14.98
2017-09-23T05:36:57.360Z,15.08
2017-09-23T05:39:24.932Z,15.08
2017-09-23T05:41:52.470Z,15.08
2017-09-23T05:44:20.008Z,15.12
2017-09-23T05:46:47.596Z,15.07
2017-09-23T05:49:15.202Z,15.04
2017-09-23T05:51:42.844Z,15.12
2017-09-23T05:54:11.974Z,15.24
2017-09-23T05:56:39.612Z,15.16
2017-09-23T05:59:07.188Z,15.21
2017-09-23T06:01:34.743Z,15.20
2017-09-23T06:04:03.086Z,15.24
2017-09-23T06:06:31.126Z,15.37
2017-09-23T06:08:59.466Z,15.36
2017-09-23T06:11:36.611Z,15.38
2017-09-23T06:14:04.339Z,15.77
2017-09-23T06:16:32.545Z,15.59
2017-09-23T06:19:00.097Z,15.71
2017-09-23T06:21:27.737Z,15.46
2017-09-23T06:23:55.619Z,15.50
2017-09-23T06:26:23.230Z,15.48
2017-09-23T06:28:50.823Z,15.33
2017-09-23T06:31:19.325Z,15.31
2017-09-23T06:33:47.449Z,15.40
2017-09-23T06:36:15.816Z,15.20
2017-09-23T06:38:44.153Z,15.21
2017-09-23T06:41:11.782Z,15.33
2017-09-23T06:43:39.481Z,15.31
2017-09-23T06:46:07.155Z,15.47
2017-09-23T06:48:34.835Z,15.51
2017-09-23T06:51:02.588Z,15.56
2017-09-23T06:53:30.331Z,15.66
2017-09-23T06:55:58.030Z,15.75
2017-09-23T06:58:25.722Z,15.83
2017-09-23T07:00:53.765Z,15.98
2017-09-23T07:03:21.470Z,16.18
2017-09-23T07:05:49.240Z,16.16
2017-09-23T07:08:17.048Z,16.23
2017-09-23T07:10:44.788Z,16.33
2017-09-23T07:13:13.290Z,16.38
2017-09-23T07:15:41.025Z,16.57
2017-09-23T07:18:10.051Z,16.84
2017-09-23T07:20:37.762Z,16.44
2017-09-23T07:23:05.578Z,16.34
2017-09-23T07:25:33.229Z,16.43
2017-09-23T07:28:00.915Z,16.52
2017-09-23T07:30:28.525Z,16.57
2017-09-23T07:32:56.224Z,16.63
2017-09-23T07:35:24.367Z,16.50
2017-09-23T07:37:52.723Z,16.48
2017-09-23T07:40:21.329Z,16.64
2017-09-23T07:42:48.958Z,16.80
2017-09-23T07:45:17.464Z,16.69
2017-09-23T07:47:45.103Z,16.71
2017-09-23T07:50:13.697Z,16.85
2017-09-23T07:52:42.250Z,16.93
2017-09-23T07:55:10.571Z,17.02
2017-09-23T07:57:39.166Z,17.01
2017-09-23T08:00:08.120Z,17.44
2017-09-23T08:02:36.502Z,17.60
2017-09-23T08:05:04.958Z,17.48
2017-09-23T08:07:33.546Z,17.39
2017-09-23T08:10:02.391Z,17.16
2017-09-23T08:12:30.197Z,17.22
2017-09-23T08:14:59.651Z,17.44
2017-09-23T08:17:28.089Z,17.28
2017-09-23T08:19:55.742Z,17.47
2017-09-23T08:22:23.375Z,17.70
2017-09-23T08:24:51.538Z,18.15
2017-09-23T08:27:19.317Z,17.81
2017-09-23T08:29:47.579Z,18.08
2017-09-23T08:32:16.064Z,18.28
2017-09-23T08:34:44.591Z,18.91
2017-09-23T08:37:12.156Z,19.37
2017-09-23T08:39:42.694Z,19.19
2017-09-23T08:42:11.229Z,18.92
2017-09-23T08:44:39.086Z,18.60
2017-09-23T08:47:07.637Z,18.54
2017-09-23T08:49:36.381Z,18.48
2017-09-23T08:52:04.867Z,18.56
2017-09-23T08:54:33.914Z,18.90
2017-09-23T08:57:01.720Z,18.51
2017-09-23T08:59:29.367Z,18.78
2017-09-23T09:01:57.028Z,18.89
2017-09-23T09:04:24.758Z,18.88
2017-09-23T09:06:52.375Z,18.92
2017-09-23T09:09:19.989Z,18.56
2017-09-23T09:11:48.605Z,18.65
2017-09-23T09:14:16.204Z,18.71
2017-09-23T09:16:44.482Z,18.47
2017-09-23T09:19:13.362Z,18.67
2017-09-23T09:21:41.139Z,18.82
2017-09-23T09:24:08.718Z,18.94
2017-09-23T09:26:36.347Z,19.01
2017-09-23T09:29:04.047Z,19.11
2017-09-23T09:31:31.931Z,18.86
2017-09-23T09:33:59.531Z,18.93
2017-09-23T09:36:27.290Z,19.06
2017-09-23T09:38:55.866Z,19.09
2017-09-23T09:41:23.471Z,19.10
2017-09-23T09:43:51.104Z,19.21
2017-09-23T09:46:18.700Z,19.42
2017-09-23T09:48:47.427Z,19.31
2017-09-23T09:51:15.813Z,19.02
2017-09-23T09:53:45.131Z,18.73
2017-09-23T09:56:12.872Z,18.77
2017-09-23T09:58:40.471Z,18.51
2017-09-23T10:01:08.116Z,18.55
2017-09-23T10:03:36.646Z,18.49
2017-09-23T10:06:04.475Z,18.52
2017-09-23T10:08:32.283Z,18.75
2017-09-23T10:11:01.413Z,18.87
2017-09-23T10:13:38.970Z,19.31
2017-09-23T10:16:06.530Z,19.66
2017-09-23T10:18:35.444Z,19.98
2017-09-23T10:21:03.093Z,19.70
2017-09-23T10:23:30.859Z,19.39
2017-09-23T10:25:58.394Z,19.36
2017-09-23T10:28:26.972Z,19.55
2017-09-23T10:30:55.538Z,19.43
2017-09-23T10:33:25.482Z,19.33
2017-09-23T10:35:55.678Z,19.32
2017-09-23T10:38:23.488Z,19.32
2017-09-23T10:40:51.139Z,19.80
2017-09-23T10:43:18.799Z,19.55
2017-09-23T10:45:46.442Z,19.43
2017-09-23T10:48:14.075Z,19.32
2017-09-23T10:50:42.630Z,19.35
2017-09-23T10:53:12.134Z,19.17
2017-09-23T10:55:42.635Z,19.17
2017-09-23T10:58:12.930Z,19.08
2017-09-23T11:00:42.101Z,19.18
2017-09-23T11:03:12.603Z,19.37
2017-09-23T11:05:40.433Z,19.71
2017-09-23T11:08:08.061Z,19.93
2017-09-23T11:10:35.839Z,19.70
2017-09-23T11:13:03.548Z,19.50
2017-09-23T11:15:31.651Z,19.26
2017-09-23T11:17:59.239Z,19.63
2017-09-23T11:20:27.086Z,20.29
2017-09-23T11:22:54.836Z,20.32
2017-09-23T11:25:23.227Z,20.58
2017-09-23T11:27:52.210Z,20.91
2017-09-23T11:30:23.110Z,21.31
2017-09-23T11:32:51.136Z,21.44
2017-09-23T11:35:19.439Z,21.85
2017-09-23T11:37:47.060Z,21.81
2017-09-23T11:40:15.684Z,21.47
2017-09-23T11:42:43.419Z,21.10
2017-09-23T11:45:11.093Z,21.13
2017-09-23T11:47:39.723Z,20.74
2017-09-23T11:50:13.711Z,20.68
2017-09-23T11:52:41.786Z,21.10
2017-09-23T11:55:10.443Z,21.48
2017-09-23T11:57:39.463Z,21.85
2017-09-23T12:00:27.999Z,22.29
2017-09-23T12:02:55.797Z,21.75
2017-09-23T12:05:24.145Z,21.33
2017-09-23T12:07:51.821Z,21.42
2017-09-23T12:10:19.460Z,21.65
2017-09-23T12:12:47.089Z,21.33
2017-09-23T12:15:14.776Z,21.39
2017-09-23T12:17:42.343Z,21.15
2017-09-23T12:20:10.856Z,21.26
2017-09-23T12:22:38.954Z,21.33
2017-09-23T12:25:07.330Z,21.30
2017-09-23T12:27:36.541Z,21.35
2017-09-23T12:30:07.817Z,21.54
2017-09-23T12:32:35.367Z,21.74
2017-09-23T12:35:03.168Z,21.25
2017-09-23T12:37:34.814Z,21.14
2017-09-23T12:40:02.659Z,21.21
2017-09-23T12:42:30.608Z,21.46
2017-09-23T12:44:58.852Z,21.24
2017-09-23T12:47:26.579Z,21.22
2017-09-23T12:49:54.212Z,21.71
2017-09-23T12:52:21.807Z,21.81
2017-09-23T12:54:49.597Z,21.54
2017-09-23T12:57:17.587Z,21.51
2017-09-23T12:59:46.115Z,21.53
2017-09-23T13:02:13.771Z,21.67
2017-09-23T13:04:41.603Z,21.49
2017-09-23T13:07:10.053Z,21.51
2017-09-23T13:09:38.495Z,21.59
2017-09-23T13:12:07.170Z,21.56
2017-09-23T13:14:35.653Z,21.42
2017-09-23T13:17:03.293Z,21.50
2017-09-23T13:19:31.128Z,21.60
2017-09-23T13:21:58.686Z,21.59
2017-09-23T13:24:26.833Z,21.65
2017-09-23T13:26:54.393Z,21.61
2017-09-23T13:29:22.020Z,21.43
2017-09-23T13:31:49.605Z,21.52
2017-09-23T13:34:18.672Z,21.60
2017-09-23T13:36:47.112Z,21.76
2017-09-23T13:39:40.085Z,21.50
2017-09-23T13:42:07.660Z,21.42
2017-09-23T13:44:35.228Z,21.30
2017-09-23T13:47:02.806Z,21.39
2017-09-23T13:49:30.645Z,21.32
2017-09-23T13:51:58.307Z,21.50
2017-09-23T13:54:25.883Z,21.33
2017-09-23T13:56:54.331Z,21.05
2017-09-23T13:59:21.874Z,20.90
2017-09-23T14:01:49.468Z,20.75
2017-09-23T14:04:17.195Z,20.71
2017-09-23T14:06:51.826Z,20.60
2017-09-23T14:09:20.416Z,20.67
2017-09-23T14:11:49.464Z,20.34
2017-09-23T14:14:19.834Z,20.17
2017-09-23T14:16:50.188Z,20.24
2017-09-23T14:19:19.752Z,20.22
2017-09-23T14:21:50.428Z,20.06
2017-09-23T14:24:20.610Z,20.00
2017-09-23T14:26:48.236Z,19.93
2017-09-23T14:29:16.503Z,19.86
2017-09-23T14:31:45.701Z,19.97
2017-09-23T14:34:15.081Z,19.96
2017-09-23T14:36:43.379Z,19.85
2017-09-23T14:39:16.545Z,19.77
2017-09-23T14:41:45.946Z,19.61
2017-09-23T14:44:15.633Z,19.64
2017-09-23T14:46:43.348Z,19.62
2017-09-23T14:49:10.958Z,19.55
2017-09-23T14:51:38.555Z,19.59
2017-09-23T14:54:06.107Z,19.59
2017-09-23T14:56:33.652Z,19.57
2017-09-23T14:59:01.582Z,19.55
2017-09-23T15:01:29.300Z,19.43
2017-09-23T15:03:57.376Z,19.32
2017-09-23T15:06:25.547Z,19.34
2017-09-23T15:08:53.368Z,19.36
2017-09-23T15:11:23.345Z,19.24
2017-09-23T15:13:52.802Z,19.28
2017-09-23T15:16:21.560Z,19.28
2017-09-23T15:18:49.333Z,19.22
2017-09-23T15:21:16.889Z,19.19
2017-09-23T15:23:47.051Z,19.18
2017-09-23T15:26:15.257Z,19.19
2017-09-23T15:28:50.497Z,19.21
2017-09-23T15:34:30.331Z,19.26
2017-09-23T15:37:05.244Z,19.24
2017-09-23T15:39:34.130Z,19.31
2017-09-23T15:42:02.411Z,19.24
2017-09-23T15:44:30.063Z,19.19
2017-09-23T15:49:36.292Z,19.04
2017-09-23T15:52:08.669Z,18.99
2017-09-23T15:54:45.744Z,19.03
2017-09-23T15:57:14.408Z,18.97
2017-09-23T15:59:42.012Z,18.88
2017-09-23T16:02:20.218Z,18.92
2017-09-23T16:04:48.623Z,18.91
2017-09-23T16:07:17.174Z,18.89
2017-09-23T16:09:50.698Z,18.81
2017-09-23T16:12:18.412Z,18.83
2017-09-23T16:14:46.918Z,18.78
2017-09-23T16:17:21.438Z,18.83
2017-09-23T16:19:49.565Z,18.88
2017-09-23T16:22:18.413Z,18.89
2017-09-23T16:24:46.934Z,18.83
2017-09-23T16:27:15.167Z,18.81
2017-09-23T16:29:43.012Z,18.79
2017-09-23T16:32:10.639Z,18.64
2017-09-23T16:34:40.472Z,18.54
2017-09-23T16:37:09.170Z,18.47
2017-09-23T16:39:37.560Z,18.37
2017-09-23T16:42:06.214Z,18.36
2017-09-23T16:44:33.755Z,18.28
2017-09-23T16:47:01.443Z,18.34
2017-09-23T16:49:28.975Z,18.26
2017-09-23T16:51:56.657Z,18.27
2017-09-23T16:54:24.507Z,18.28
2017-09-23T16:56:52.604Z,18.26
2017-09-23T16:59:20.322Z,18.26
2017-09-23T17:01:48.555Z,18.31
2017-09-23T17:04:16.194Z,18.19
2017-09-23T17:06:43.754Z,18.50
2017-09-23T17:09:11.331Z,18.36
2017-09-23T17:11:39.091Z,18.20
2017-09-23T17:14:09.683Z,18.24
2017-09-23T17:16:40.301Z,18.18
2017-09-23T17:19:09.549Z,18.20
2017-09-23T17:21:37.339Z,18.23
2017-09-23T17:24:05.897Z,18.14
2017-09-23T17:26:33.551Z,18.04
2017-09-23T17:29:01.133Z,18.03
2017-09-23T17:31:28.732Z,18.06
2017-09-23T17:34:01.226Z,18.00
2017-09-23T17:36:28.867Z,17.93
2017-09-23T17:38:56.652Z,17.85
2017-09-23T17:41:24.463Z,17.79
2017-09-23T17:43:55.814Z,17.80
2017-09-23T17:46:31.320Z,17.85
2017-09-23T17:49:14.253Z,17.65
2017-09-23T17:52:07.666Z,17.78
2017-09-23T17:57:31.534Z,17.67
2017-09-23T18:00:13.408Z,17.82
2017-09-23T18:02:41.015Z,17.77
2017-09-23T18:05:08.603Z,17.72
2017-09-23T18:07:36.344Z,17.68
2017-09-23T18:10:03.988Z,17.57
2017-09-23T18:12:31.606Z,17.68
2017-09-23T18:15:01.755Z,17.66
2017-09-23T18:17:29.918Z,17.61
2017-09-23T18:19:59.958Z,17.81
2017-09-23T18:22:27.542Z,17.82
2017-09-23T18:24:56.236Z,17.81
2017-09-23T18:27:24.834Z,17.75
2017-09-23T18:29:52.715Z,17.75
2017-09-23T18:32:20.480Z,17.73
2017-09-23T18:34:48.896Z,17.63
2017-09-23T18:37:17.437Z,17.69
2017-09-23T18:39:48.054Z,17.72
2017-09-23T18:42:15.807Z,17.70
2017-09-23T18:44:45.767Z,17.35
2017-09-23T18:47:13.387Z,17.06
2017-09-23T18:49:40.980Z,17.14
2017-09-23T18:52:08.517Z,17.13
2017-09-23T18:54:39.754Z,16.89
2017-09-23T18:57:11.705Z,16.78
2017-09-23T18:59:42.114Z,16.79
2017-09-23T19:02:14.551Z,16.85
2017-09-23T19:04:43.061Z,17.07
2017-09-23T19:07:10.792Z,17.19
2017-09-23T19:09:39.690Z,17.17
2017-09-23T19:12:07.245Z,17.21
2017-09-23T19:14:35.867Z,17.23
2017-09-23T19:17:04.108Z,17.26
2017-09-23T19:19:31.873Z,17.30
2017-09-23T19:21:59.433Z,17.31
2017-09-23T19:24:27.064Z,17.26
2017-09-23T19:26:56.862Z,17.15
2017-09-23T19:29:24.406Z,17.27
2017-09-23T19:31:53.025Z,17.30
2017-09-23T19:34:21.371Z,17.33
2017-09-23T19:36:50.527Z,16.96
2017-09-23T19:39:20.661Z,16.61
2017-09-23T19:41:49.492Z,16.64
2017-09-23T19:44:18.646Z,16.59
2017-09-23T19:46:47.194Z,16.73
2017-09-23T19:49:14.986Z,16.62
2017-09-23T19:51:45.743Z,16.47
2017-09-23T19:54:20.145Z,16.55
2017-09-23T19:56:50.314Z,16.44
2017-09-23T19:59:22.663Z,16.44
2017-09-23T20:01:50.704Z,16.38
2017-09-23T20:04:18.291Z,16.39
2017-09-23T20:06:45.890Z,16.52
2017-09-23T20:09:14.505Z,16.56
2017-09-23T20:11:42.043Z,16.55
2017-09-23T20:14:09.878Z,16.48
2017-09-23T20:16:38.617Z,16.36
2017-09-23T20:19:09.481Z,16.26
2017-09-23T20:21:40.980Z,16.30
2017-09-23T20:24:09.312Z,16.12
2017-09-23T20:29:18.247Z,16.23
2017-09-23T20:31:48.240Z,16.08
2017-09-23T20:34:18.010Z,16.11
2017-09-23T20:36:46.070Z,16.10
2017-09-23T20:39:14.118Z,16.30
2017-09-23T20:41:42.382Z,16.11
2017-09-23T20:44:11.607Z,16.15
2017-09-23T20:46:39.674Z,16.20
2017-09-23T20:49:08.361Z,15.99
2017-09-23T20:51:36.586Z,15.83
2017-09-23T20:54:04.631Z,15.62
2017-09-23T20:56:37.318Z,15.53
2017-09-23T20:59:09.501Z,15.56
